sensor_id;sensor_type;location;lat;lon;timestamp;P1;durP1;ratioP1;P2;durP2;ratioP2
26512;SDS011;14186;53.822;10.152;2022-07-18T00:03:41;6.20;;;3.42;;
26512;SDS011;14186;53.822;10.152;2022-07-18T00:08:44;5.80;;;2.95;;
26512;SDS011;14186;53.822;10.152;2022-07-18T00:13:44;5.93;;;3.10;;
26512;SDS011;14186;53.822;10.152;2022-07-18T00:18:44;5.28;;;3.30;;
26512;SDS011;14186;53.822;10.152;2022-07-18T00:23:46;3.92;;;2.78;;
26512;SDS011;14186;53.822;10.152;2022-07-18T00:28:47;4.45;;;2.80;;
26512;SDS011;14186;53.822;10.152;2022-07-18T00:33:47;5.63;;;3.15;;
26512;SDS011;14186;53.822;10.152;2022-07-18T00:38:49;7.32;;;3.10;;
26512;SDS011;14186;53.822;10.152;2022-07-18T00:43:52;4.78;;;3.15;;
26512;SDS011;14186;53.822;10.152;2022-07-18T00:48:58;4.57;;;3.20;;
26512;SDS011;14186;53.822;10.152;2022-07-18T00:54:00;5.90;;;3.08;;
26512;SDS011;14186;53.822;10.152;2022-07-18T00:59:00;4.95;;;2.78;;
26512;SDS011;14186;53.822;10.152;2022-07-18T01:04:00;5.80;;;3.63;;
26512;SDS011;14186;53.822;10.152;2022-07-18T01:09:02;6.63;;;3.30;;
26512;SDS011;14186;53.822;10.152;2022-07-18T01:14:03;5.28;;;3.03;;
26512;SDS011;14186;53.822;10.152;2022-07-18T01:19:04;7.45;;;3.55;;
26512;SDS011;14186;53.822;10.152;2022-07-18T01:24:06;6.05;;;3.10;;
26512;SDS011;14186;53.822;10.152;2022-07-18T01:29:06;4.97;;;2.80;;
26512;SDS011;14186;53.822;10.152;2022-07-18T01:34:06;6.03;;;3.22;;
26512;SDS011;14186;53.822;10.152;2022-07-18T01:39:08;5.53;;;3.50;;
26512;SDS011;14186;53.822;10.152;2022-07-18T01:44:08;5.03;;;2.70;;
26512;SDS011;14186;53.822;10.152;2022-07-18T01:49:08;5.05;;;3.15;;
26512;SDS011;14186;53.822;10.152;2022-07-18T01:54:10;4.18;;;2.90;;
26512;SDS011;14186;53.822;10.152;2022-07-18T01:59:10;5.63;;;2.97;;
26512;SDS011;14186;53.822;10.152;2022-07-18T02:04:10;6.05;;;2.70;;
26512;SDS011;14186;53.822;10.152;2022-07-18T02:09:12;6.50;;;2.65;;
26512;SDS011;14186;53.822;10.152;2022-07-18T02:14:13;8.13;;;3.05;;
26512;SDS011;14186;53.822;10.152;2022-07-18T02:19:13;6.57;;;3.17;;
26512;SDS011;14186;53.822;10.152;2022-07-18T02:24:15;7.68;;;3.00;;
26512;SDS011;14186;53.822;10.152;2022-07-18T02:29:15;4.97;;;3.25;;
26512;SDS011;14186;53.822;10.152;2022-07-18T02:34:16;5.88;;;3.70;;
26512;SDS011;14186;53.822;10.152;2022-07-18T02:39:18;4.75;;;2.83;;
26512;SDS011;14186;53.822;10.152;2022-07-18T02:44:18;4.25;;;2.75;;
26512;SDS011;14186;53.822;10.152;2022-07-18T02:49:19;6.75;;;3.45;;
26512;SDS011;14186;53.822;10.152;2022-07-18T02:54:20;4.55;;;2.85;;
26512;SDS011;14186;53.822;10.152;2022-07-18T02:59:21;7.75;;;3.15;;
26512;SDS011;14186;53.822;10.152;2022-07-18T03:04:21;6.43;;;3.15;;
26512;SDS011;14186;53.822;10.152;2022-07-18T03:09:23;3.95;;;2.58;;
26512;SDS011;14186;53.822;10.152;2022-07-18T03:14:23;5.45;;;3.00;;
26512;SDS011;14186;53.822;10.152;2022-07-18T03:19:24;5.10;;;2.88;;
26512;SDS011;14186;53.822;10.152;2022-07-18T03:24:26;8.38;;;4.35;;
26512;SDS011;14186;53.822;10.152;2022-07-18T03:29:29;6.18;;;3.55;;
26512;SDS011;14186;53.822;10.152;2022-07-18T03:34:29;6.38;;;2.92;;
26512;SDS011;14186;53.822;10.152;2022-07-18T03:39:31;5.97;;;3.22;;
26512;SDS011;14186;53.822;10.152;2022-07-18T03:44:31;3.97;;;2.40;;
26512;SDS011;14186;53.822;10.152;2022-07-18T03:49:31;6.45;;;2.47;;
26512;SDS011;14186;53.822;10.152;2022-07-18T03:54:33;7.70;;;2.90;;
26512;SDS011;14186;53.822;10.152;2022-07-18T03:59:33;7.82;;;3.63;;
26512;SDS011;14186;53.822;10.152;2022-07-18T04:04:33;7.53;;;2.85;;
26512;SDS011;14186;53.822;10.152;2022-07-18T04:09:35;7.95;;;3.50;;
26512;SDS011;14186;53.822;10.152;2022-07-18T04:14:35;5.90;;;3.03;;
26512;SDS011;14186;53.822;10.152;2022-07-18T04:19:35;4.28;;;2.83;;
26512;SDS011;14186;53.822;10.152;2022-07-18T04:24:38;6.22;;;3.00;;
26512;SDS011;14186;53.822;10.152;2022-07-18T04:29:38;6.15;;;2.67;;
26512;SDS011;14186;53.822;10.152;2022-07-18T04:34:38;4.82;;;2.65;;
26512;SDS011;14186;53.822;10.152;2022-07-18T04:39:40;6.20;;;2.67;;
26512;SDS011;14186;53.822;10.152;2022-07-18T04:44:40;6.75;;;3.05;;
26512;SDS011;14186;53.822;10.152;2022-07-18T04:49:40;9.40;;;2.95;;
26512;SDS011;14186;53.822;10.152;2022-07-18T04:54:42;6.60;;;3.75;;
26512;SDS011;14186;53.822;10.152;2022-07-18T04:59:42;6.05;;;2.28;;
26512;SDS011;14186;53.822;10.152;2022-07-18T05:04:49;4.05;;;2.38;;
26512;SDS011;14186;53.822;10.152;2022-07-18T05:09:50;4.93;;;2.20;;
26512;SDS011;14186;53.822;10.152;2022-07-18T05:14:51;5.07;;;2.17;;
26512;SDS011;14186;53.822;10.152;2022-07-18T05:19:51;3.38;;;2.10;;
26512;SDS011;14186;53.822;10.152;2022-07-18T05:24:52;4.85;;;2.20;;
26512;SDS011;14186;53.822;10.152;2022-07-18T05:29:53;3.60;;;2.22;;
26512;SDS011;14186;53.822;10.152;2022-07-18T05:34:53;5.82;;;2.30;;
26512;SDS011;14186;53.822;10.152;2022-07-18T05:39:54;5.50;;;2.03;;
26512;SDS011;14186;53.822;10.152;2022-07-18T05:44:55;3.75;;;2.20;;
26512;SDS011;14186;53.822;10.152;2022-07-18T05:49:55;4.45;;;2.50;;
26512;SDS011;14186;53.822;10.152;2022-07-18T05:54:57;7.18;;;2.33;;
26512;SDS011;14186;53.822;10.152;2022-07-18T05:59:57;4.75;;;2.40;;
26512;SDS011;14186;53.822;10.152;2022-07-18T06:04:58;5.95;;;2.60;;
26512;SDS011;14186;53.822;10.152;2022-07-18T06:10:00;4.47;;;2.40;;
26512;SDS011;14186;53.822;10.152;2022-07-18T06:15:02;7.60;;;3.10;;
26512;SDS011;14186;53.822;10.152;2022-07-18T06:20:02;5.00;;;2.80;;
26512;SDS011;14186;53.822;10.152;2022-07-18T06:25:05;6.72;;;3.17;;
26512;SDS011;14186;53.822;10.152;2022-07-18T06:30:06;7.88;;;3.30;;
26512;SDS011;14186;53.822;10.152;2022-07-18T06:35:07;5.50;;;3.00;;
26512;SDS011;14186;53.822;10.152;2022-07-18T06:40:09;5.22;;;2.80;;
26512;SDS011;14186;53.822;10.152;2022-07-18T06:45:10;5.63;;;3.15;;
26512;SDS011;14186;53.822;10.152;2022-07-18T06:50:10;7.20;;;3.13;;
26512;SDS011;14186;53.822;10.152;2022-07-18T06:55:13;6.25;;;3.03;;
26512;SDS011;14186;53.822;10.152;2022-07-18T07:00:13;6.30;;;4.10;;
26512;SDS011;14186;53.822;10.152;2022-07-18T07:05:16;7.05;;;3.53;;
26512;SDS011;14186;53.822;10.152;2022-07-18T07:10:18;6.30;;;3.70;;
26512;SDS011;14186;53.822;10.152;2022-07-18T07:15:19;5.47;;;3.70;;
26512;SDS011;14186;53.822;10.152;2022-07-18T07:20:19;6.53;;;3.55;;
26512;SDS011;14186;53.822;10.152;2022-07-18T07:25:22;6.80;;;4.40;;
26512;SDS011;14186;53.822;10.152;2022-07-18T07:30:22;10.27;;;4.60;;
26512;SDS011;14186;53.822;10.152;2022-07-18T07:35:23;10.27;;;4.75;;
26512;SDS011;14186;53.822;10.152;2022-07-18T07:40:26;9.85;;;4.65;;
26512;SDS011;14186;53.822;10.152;2022-07-18T07:45:27;8.65;;;4.68;;
26512;SDS011;14186;53.822;10.152;2022-07-18T07:50:27;8.73;;;5.18;;
26512;SDS011;14186;53.822;10.152;2022-07-18T07:55:29;7.33;;;5.00;;
26512;SDS011;14186;53.822;10.152;2022-07-18T08:00:29;9.30;;;5.55;;
26512;SDS011;14186;53.822;10.152;2022-07-18T08:05:30;9.13;;;5.75;;
26512;SDS011;14186;53.822;10.152;2022-07-18T08:10:33;11.85;;;5.63;;
26512;SDS011;14186;53.822;10.152;2022-07-18T08:15:33;8.93;;;5.45;;
26512;SDS011;14186;53.822;10.152;2022-07-18T08:20:33;7.13;;;4.80;;
26512;SDS011;14186;53.822;10.152;2022-07-18T08:25:36;8.18;;;5.00;;
26512;SDS011;14186;53.822;10.152;2022-07-18T08:30:38;9.80;;;5.10;;
26512;SDS011;14186;53.822;10.152;2022-07-18T08:35:39;7.40;;;4.90;;
26512;SDS011;14186;53.822;10.152;2022-07-18T08:40:41;8.60;;;4.85;;
26512;SDS011;14186;53.822;10.152;2022-07-18T08:45:42;11.05;;;4.78;;
26512;SDS011;14186;53.822;10.152;2022-07-18T08:50:43;8.50;;;4.90;;
26512;SDS011;14186;53.822;10.152;2022-07-18T08:55:45;6.97;;;4.80;;
26512;SDS011;14186;53.822;10.152;2022-07-18T09:00:46;7.90;;;4.50;;
26512;SDS011;14186;53.822;10.152;2022-07-18T09:05:46;7.68;;;4.35;;
26512;SDS011;14186;53.822;10.152;2022-07-18T09:11:03;9.38;;;5.28;;
26512;SDS011;14186;53.822;10.152;2022-07-18T09:16:05;8.98;;;5.35;;
26512;SDS011;14186;53.822;10.152;2022-07-18T09:21:06;7.82;;;4.55;;
26512;SDS011;14186;53.822;10.152;2022-07-18T09:26:09;7.18;;;4.70;;
26512;SDS011;14186;53.822;10.152;2022-07-18T09:31:16;8.85;;;4.78;;
26512;SDS011;14186;53.822;10.152;2022-07-18T09:36:16;9.30;;;5.43;;
26512;SDS011;14186;53.822;10.152;2022-07-18T09:41:22;18.50;;;6.60;;
26512;SDS011;14186;53.822;10.152;2022-07-18T09:46:23;9.65;;;5.40;;
26512;SDS011;14186;53.822;10.152;2022-07-18T09:51:23;8.93;;;5.75;;
26512;SDS011;14186;53.822;10.152;2022-07-18T09:56:24;10.65;;;5.47;;
26512;SDS011;14186;53.822;10.152;2022-07-18T10:01:25;10.65;;;5.28;;
26512;SDS011;14186;53.822;10.152;2022-07-18T10:06:25;11.07;;;5.13;;
26512;SDS011;14186;53.822;10.152;2022-07-18T10:11:26;7.13;;;4.78;;
26512;SDS011;14186;53.822;10.152;2022-07-18T10:16:28;7.43;;;4.18;;
26512;SDS011;14186;53.822;10.152;2022-07-18T10:21:28;7.35;;;4.40;;
26512;SDS011;14186;53.822;10.152;2022-07-18T10:26:30;6.63;;;4.38;;
26512;SDS011;14186;53.822;10.152;2022-07-18T10:31:30;12.40;;;5.03;;
26512;SDS011;14186;53.822;10.152;2022-07-18T10:36:31;7.90;;;5.30;;
26512;SDS011;14186;53.822;10.152;2022-07-18T10:41:34;9.02;;;5.30;;
26512;SDS011;14186;53.822;10.152;2022-07-18T10:47:04;8.75;;;5.18;;
26512;SDS011;14186;53.822;10.152;2022-07-18T10:52:04;9.35;;;5.22;;
26512;SDS011;14186;53.822;10.152;2022-07-18T10:57:07;8.82;;;5.57;;
26512;SDS011;14186;53.822;10.152;2022-07-18T11:02:07;7.28;;;5.50;;
26512;SDS011;14186;53.822;10.152;2022-07-18T11:07:09;7.68;;;5.07;;
26512;SDS011;14186;53.822;10.152;2022-07-18T11:12:21;7.53;;;4.95;;
26512;SDS011;14186;53.822;10.152;2022-07-18T11:17:30;7.60;;;4.97;;
26512;SDS011;14186;53.822;10.152;2022-07-18T11:22:51;9.07;;;5.38;;
26512;SDS011;14186;53.822;10.152;2022-07-18T11:27:54;7.57;;;4.60;;
26512;SDS011;14186;53.822;10.152;2022-07-18T11:32:54;8.27;;;4.40;;
26512;SDS011;14186;53.822;10.152;2022-07-18T11:37:54;8.40;;;4.95;;
26512;SDS011;14186;53.822;10.152;2022-07-18T11:42:57;9.50;;;4.93;;
26512;SDS011;14186;53.822;10.152;2022-07-18T11:47:57;6.57;;;4.47;;
26512;SDS011;14186;53.822;10.152;2022-07-18T11:52:57;9.30;;;4.93;;
26512;SDS011;14186;53.822;10.152;2022-07-18T11:58:06;7.05;;;4.80;;
26512;SDS011;14186;53.822;10.152;2022-07-18T12:03:07;7.22;;;4.47;;
26512;SDS011;14186;53.822;10.152;2022-07-18T12:13:27;8.55;;;5.45;;
26512;SDS011;14186;53.822;10.152;2022-07-18T12:18:38;6.82;;;4.72;;
26512;SDS011;14186;53.822;10.152;2022-07-18T12:23:47;7.05;;;4.10;;
26512;SDS011;14186;53.822;10.152;2022-07-18T12:28:48;7.85;;;4.88;;
26512;SDS011;14186;53.822;10.152;2022-07-18T12:39:12;6.68;;;4.15;;
26512;SDS011;14186;53.822;10.152;2022-07-18T12:44:14;7.43;;;4.53;;
26512;SDS011;14186;53.822;10.152;2022-07-18T12:49:15;5.82;;;4.10;;
26512;SDS011;14186;53.822;10.152;2022-07-18T12:54:16;6.10;;;4.00;;
26512;SDS011;14186;53.822;10.152;2022-07-18T12:59:18;8.75;;;3.72;;
26512;SDS011;14186;53.822;10.152;2022-07-18T13:04:18;7.25;;;4.10;;
26512;SDS011;14186;53.822;10.152;2022-07-18T13:09:20;5.78;;;3.72;;
26512;SDS011;14186;53.822;10.152;2022-07-18T13:14:22;6.90;;;3.60;;
26512;SDS011;14186;53.822;10.152;2022-07-18T13:19:22;8.55;;;4.07;;
26512;SDS011;14186;53.822;10.152;2022-07-18T13:24:23;6.65;;;3.85;;
26512;SDS011;14186;53.822;10.152;2022-07-18T13:29:25;6.70;;;3.45;;
26512;SDS011;14186;53.822;10.152;2022-07-18T13:34:25;6.28;;;3.60;;
26512;SDS011;14186;53.822;10.152;2022-07-18T13:39:25;5.75;;;3.65;;
26512;SDS011;14186;53.822;10.152;2022-07-18T13:44:27;5.20;;;3.27;;
26512;SDS011;14186;53.822;10.152;2022-07-18T13:49:27;6.25;;;2.85;;
26512;SDS011;14186;53.822;10.152;2022-07-18T13:54:27;4.63;;;2.55;;
26512;SDS011;14186;53.822;10.152;2022-07-18T13:59:29;4.32;;;2.60;;
26512;SDS011;14186;53.822;10.152;2022-07-18T14:04:29;3.67;;;2.50;;
26512;SDS011;14186;53.822;10.152;2022-07-18T14:09:30;3.93;;;2.73;;
26512;SDS011;14186;53.822;10.152;2022-07-18T14:14:31;6.07;;;3.03;;
26512;SDS011;14186;53.822;10.152;2022-07-18T14:19:32;4.88;;;2.58;;
26512;SDS011;14186;53.822;10.152;2022-07-18T14:24:32;4.85;;;2.90;;
26512;SDS011;14186;53.822;10.152;2022-07-18T14:29:34;4.78;;;2.50;;
26512;SDS011;14186;53.822;10.152;2022-07-18T14:34:36;3.85;;;2.33;;
26512;SDS011;14186;53.822;10.152;2022-07-18T14:39:36;4.95;;;2.60;;
26512;SDS011;14186;53.822;10.152;2022-07-18T14:44:37;4.18;;;2.60;;
26512;SDS011;14186;53.822;10.152;2022-07-18T14:49:38;4.10;;;2.78;;
26512;SDS011;14186;53.822;10.152;2022-07-18T14:54:38;4.15;;;2.95;;
26512;SDS011;14186;53.822;10.152;2022-07-18T14:59:40;4.90;;;2.90;;
26512;SDS011;14186;53.822;10.152;2022-07-18T15:04:42;6.32;;;2.92;;
26512;SDS011;14186;53.822;10.152;2022-07-18T15:09:43;5.97;;;3.38;;
26512;SDS011;14186;53.822;10.152;2022-07-18T15:14:45;4.65;;;3.20;;
26512;SDS011;14186;53.822;10.152;2022-07-18T15:19:45;6.50;;;2.88;;
26512;SDS011;14186;53.822;10.152;2022-07-18T15:24:45;5.75;;;3.50;;
26512;SDS011;14186;53.822;10.152;2022-07-18T15:29:47;5.10;;;3.20;;
26512;SDS011;14186;53.822;10.152;2022-07-18T15:34:48;6.82;;;3.65;;
26512;SDS011;14186;53.822;10.152;2022-07-18T15:39:48;4.95;;;3.50;;
26512;SDS011;14186;53.822;10.152;2022-07-18T15:44:50;6.85;;;3.85;;
26512;SDS011;14186;53.822;10.152;2022-07-18T15:49:56;5.75;;;3.67;;
26512;SDS011;14186;53.822;10.152;2022-07-18T15:54:56;5.15;;;3.42;;
26512;SDS011;14186;53.822;10.152;2022-07-18T15:59:58;7.90;;;3.35;;
26512;SDS011;14186;53.822;10.152;2022-07-18T16:04:59;6.25;;;3.22;;
26512;SDS011;14186;53.822;10.152;2022-07-18T16:10:00;5.10;;;3.53;;
26512;SDS011;14186;53.822;10.152;2022-07-18T16:15:01;6.32;;;3.75;;
26512;SDS011;14186;53.822;10.152;2022-07-18T16:20:02;5.68;;;4.10;;
26512;SDS011;14186;53.822;10.152;2022-07-18T16:25:02;6.68;;;3.67;;
26512;SDS011;14186;53.822;10.152;2022-07-18T16:30:05;4.93;;;3.90;;
26512;SDS011;14186;53.822;10.152;2022-07-18T16:35:05;8.23;;;4.32;;
26512;SDS011;14186;53.822;10.152;2022-07-18T16:40:06;6.82;;;3.88;;
26512;SDS011;14186;53.822;10.152;2022-07-18T16:45:09;5.80;;;3.78;;
26512;SDS011;14186;53.822;10.152;2022-07-18T16:50:10;7.97;;;4.13;;
26512;SDS011;14186;53.822;10.152;2022-07-18T16:55:11;7.38;;;4.15;;
26512;SDS011;14186;53.822;10.152;2022-07-18T17:00:13;8.27;;;4.43;;
26512;SDS011;14186;53.822;10.152;2022-07-18T17:05:15;5.95;;;3.90;;
26512;SDS011;14186;53.822;10.152;2022-07-18T17:10:15;8.30;;;4.70;;
26512;SDS011;14186;53.822;10.152;2022-07-18T17:15:19;9.02;;;4.32;;
26512;SDS011;14186;53.822;10.152;2022-07-18T17:20:21;7.47;;;4.38;;
26512;SDS011;14186;53.822;10.152;2022-07-18T17:25:22;7.20;;;4.22;;
26512;SDS011;14186;53.822;10.152;2022-07-18T17:30:24;6.95;;;4.63;;
26512;SDS011;14186;53.822;10.152;2022-07-18T17:35:24;7.82;;;4.40;;
26512;SDS011;14186;53.822;10.152;2022-07-18T17:40:24;6.80;;;4.38;;
26512;SDS011;14186;53.822;10.152;2022-07-18T17:45:26;8.52;;;4.30;;
26512;SDS011;14186;53.822;10.152;2022-07-18T17:50:27;6.20;;;3.80;;
26512;SDS011;14186;53.822;10.152;2022-07-18T17:55:27;6.75;;;4.32;;
26512;SDS011;14186;53.822;10.152;2022-07-18T18:00:30;9.93;;;4.75;;
26512;SDS011;14186;53.822;10.152;2022-07-18T18:05:31;6.55;;;4.22;;
26512;SDS011;14186;53.822;10.152;2022-07-18T18:10:31;7.07;;;4.75;;
26512;SDS011;14186;53.822;10.152;2022-07-18T18:15:33;6.47;;;4.88;;
26512;SDS011;14186;53.822;10.152;2022-07-18T18:20:33;5.60;;;4.30;;
26512;SDS011;14186;53.822;10.152;2022-07-18T18:25:33;8.43;;;4.90;;
26512;SDS011;14186;53.822;10.152;2022-07-18T18:30:35;7.65;;;4.60;;
26512;SDS011;14186;53.822;10.152;2022-07-18T18:35:35;6.93;;;4.75;;
26512;SDS011;14186;53.822;10.152;2022-07-18T18:40:36;8.23;;;4.50;;
26512;SDS011;14186;53.822;10.152;2022-07-18T18:45:38;8.82;;;4.80;;
26512;SDS011;14186;53.822;10.152;2022-07-18T18:50:40;7.13;;;4.72;;
26512;SDS011;14186;53.822;10.152;2022-07-18T18:55:40;8.32;;;5.32;;
26512;SDS011;14186;53.822;10.152;2022-07-18T19:05:47;8.18;;;4.90;;
26512;SDS011;14186;53.822;10.152;2022-07-18T19:10:48;11.13;;;5.15;;
26512;SDS011;14186;53.822;10.152;2022-07-18T19:15:48;9.82;;;5.80;;
26512;SDS011;14186;53.822;10.152;2022-07-18T19:20:50;10.73;;;5.47;;
26512;SDS011;14186;53.822;10.152;2022-07-18T19:25:50;10.02;;;5.60;;
26512;SDS011;14186;53.822;10.152;2022-07-18T19:30:50;9.07;;;5.68;;
26512;SDS011;14186;53.822;10.152;2022-07-18T19:35:52;7.85;;;5.18;;
26512;SDS011;14186;53.822;10.152;2022-07-18T19:40:52;9.88;;;4.97;;
26512;SDS011;14186;53.822;10.152;2022-07-18T19:45:52;7.32;;;5.25;;
26512;SDS011;14186;53.822;10.152;2022-07-18T19:50:54;9.23;;;5.60;;
26512;SDS011;14186;53.822;10.152;2022-07-18T19:55:55;12.48;;;5.88;;
26512;SDS011;14186;53.822;10.152;2022-07-18T20:00:55;10.80;;;5.18;;
26512;SDS011;14186;53.822;10.152;2022-07-18T20:05:57;10.20;;;5.72;;
26512;SDS011;14186;53.822;10.152;2022-07-18T20:10:57;11.63;;;5.82;;
26512;SDS011;14186;53.822;10.152;2022-07-18T20:15:57;9.20;;;5.60;;
26512;SDS011;14186;53.822;10.152;2022-07-18T20:20:59;11.50;;;6.43;;
26512;SDS011;14186;53.822;10.152;2022-07-18T20:25:59;11.77;;;5.90;;
26512;SDS011;14186;53.822;10.152;2022-07-18T20:30:59;11.15;;;5.95;;
26512;SDS011;14186;53.822;10.152;2022-07-18T20:36:01;8.77;;;6.28;;
26512;SDS011;14186;53.822;10.152;2022-07-18T20:41:01;9.13;;;5.68;;
26512;SDS011;14186;53.822;10.152;2022-07-18T20:46:02;7.57;;;5.37;;
26512;SDS011;14186;53.822;10.152;2022-07-18T20:51:03;9.93;;;5.78;;
26512;SDS011;14186;53.822;10.152;2022-07-18T20:56:05;10.90;;;5.57;;
26512;SDS011;14186;53.822;10.152;2022-07-18T21:01:05;9.05;;;5.70;;
26512;SDS011;14186;53.822;10.152;2022-07-18T21:06:07;11.07;;;5.85;;
26512;SDS011;14186;53.822;10.152;2022-07-18T21:11:07;8.32;;;5.15;;
26512;SDS011;14186;53.822;10.152;2022-07-18T21:16:08;9.07;;;5.15;;
26512;SDS011;14186;53.822;10.152;2022-07-18T21:21:09;10.60;;;5.50;;
26512;SDS011;14186;53.822;10.152;2022-07-18T21:26:09;9.85;;;5.93;;
26512;SDS011;14186;53.822;10.152;2022-07-18T21:31:10;9.98;;;5.53;;
26512;SDS011;14186;53.822;10.152;2022-07-18T21:36:11;9.55;;;6.78;;
26512;SDS011;14186;53.822;10.152;2022-07-18T21:41:13;11.43;;;5.93;;
26512;SDS011;14186;53.822;10.152;2022-07-18T21:46:14;11.63;;;5.97;;
26512;SDS011;14186;53.822;10.152;2022-07-18T21:51:15;11.88;;;5.47;;
26512;SDS011;14186;53.822;10.152;2022-07-18T21:56:16;10.80;;;6.85;;
26512;SDS011;14186;53.822;10.152;2022-07-18T22:01:16;13.45;;;7.40;;
26512;SDS011;14186;53.822;10.152;2022-07-18T22:06:17;9.38;;;5.78;;
26512;SDS011;14186;53.822;10.152;2022-07-18T22:11:18;10.68;;;6.50;;
26512;SDS011;14186;53.822;10.152;2022-07-18T22:16:18;10.13;;;6.15;;
26512;SDS011;14186;53.822;10.152;2022-07-18T22:21:20;12.27;;;6.93;;
26512;SDS011;14186;53.822;10.152;2022-07-18T22:26:21;9.80;;;6.45;;
26512;SDS011;14186;53.822;10.152;2022-07-18T22:31:22;12.23;;;6.55;;
26512;SDS011;14186;53.822;10.152;2022-07-18T22:36:24;15.18;;;8.40;;
26512;SDS011;14186;53.822;10.152;2022-07-18T22:41:24;14.60;;;7.97;;
26512;SDS011;14186;53.822;10.152;2022-07-18T22:46:24;10.85;;;6.15;;
26512;SDS011;14186;53.822;10.152;2022-07-18T22:51:26;10.55;;;6.47;;
26512;SDS011;14186;53.822;10.152;2022-07-18T22:56:26;9.98;;;6.30;;
26512;SDS011;14186;53.822;10.152;2022-07-18T23:01:26;9.88;;;5.75;;
26512;SDS011;14186;53.822;10.152;2022-07-18T23:06:28;12.57;;;6.30;;
26512;SDS011;14186;53.822;10.152;2022-07-18T23:11:28;10.23;;;6.38;;
26512;SDS011;14186;53.822;10.152;2022-07-18T23:16:36;11.77;;;6.40;;
26512;SDS011;14186;53.822;10.152;2022-07-18T23:21:38;11.50;;;6.65;;
26512;SDS011;14186;53.822;10.152;2022-07-18T23:26:39;12.85;;;7.93;;
26512;SDS011;14186;53.822;10.152;2022-07-18T23:31:39;13.55;;;7.47;;
26512;SDS011;14186;53.822;10.152;2022-07-18T23:36:41;10.80;;;7.10;;
26512;SDS011;14186;53.822;10.152;2022-07-18T23:41:41;13.68;;;7.57;;
26512;SDS011;14186;53.822;10.152;2022-07-18T23:46:41;16.08;;;7.47;;
26512;SDS011;14186;53.822;10.152;2022-07-18T23:51:43;11.02;;;6.88;;
26512;SDS011;14186;53.822;10.152;2022-07-18T23:56:43;11.98;;;7.72;;
